sensor_id;sensor_type;location;lat;lon;timestamp;P1;durP1;ratioP1;P2;durP2;ratioP2
75059;SDS011;63640;59.264;18.116;2022-10-16T00:00:41;33.45;;;17.30;;
75059;SDS011;63640;59.264;18.116;2022-10-16T00:03:07;30.88;;;17.05;;
75059;SDS011;63640;59.264;18.116;2022-10-16T00:05:33;32.13;;;16.13;;
75059;SDS011;63640;59.264;18.116;2022-10-16T00:08:03;32.80;;;16.63;;
75059;SDS011;63640;59.264;18.116;2022-10-16T00:10:29;30.95;;;16.10;;
75059;SDS011;63640;59.264;18.116;2022-10-16T00:12:54;34.28;;;17.77;;
75059;SDS011;63640;59.264;18.116;2022-10-16T00:15:20;36.13;;;18.30;;
75059;SDS011;63640;59.264;18.116;2022-10-16T00:17:45;31.45;;;16.15;;
75059;SDS011;63640;59.264;18.116;2022-10-16T00:20:11;31.67;;;16.25;;
75059;SDS011;63640;59.264;18.116;2022-10-16T00:22:36;28.85;;;15.93;;
75059;SDS011;63640;59.264;18.116;2022-10-16T00:25:02;29.90;;;16.77;;
75059;SDS011;63640;59.264;18.116;2022-10-16T00:27:28;30.95;;;17.15;;
75059;SDS011;63640;59.264;18.116;2022-10-16T00:29:53;34.70;;;18.08;;
75059;SDS011;63640;59.264;18.116;2022-10-16T00:32:19;31.13;;;16.17;;
75059;SDS011;63640;59.264;18.116;2022-10-16T00:34:45;30.70;;;16.25;;
75059;SDS011;63640;59.264;18.116;2022-10-16T00:37:11;33.28;;;17.77;;
75059;SDS011;63640;59.264;18.116;2022-10-16T00:39:37;28.25;;;15.50;;
75059;SDS011;63640;59.264;18.116;2022-10-16T00:42:02;27.10;;;14.57;;
75059;SDS011;63640;59.264;18.116;2022-10-16T00:47:36;29.58;;;15.65;;
75059;SDS011;63640;59.264;18.116;2022-10-16T00:50:11;25.27;;;14.73;;
75059;SDS011;63640;59.264;18.116;2022-10-16T00:52:42;24.98;;;14.18;;
75059;SDS011;63640;59.264;18.116;2022-10-16T00:55:10;26.27;;;13.27;;
75059;SDS011;63640;59.264;18.116;2022-10-16T00:57:36;27.92;;;16.33;;
75059;SDS011;63640;59.264;18.116;2022-10-16T01:00:06;22.05;;;13.95;;
75059;SDS011;63640;59.264;18.116;2022-10-16T01:02:33;28.13;;;15.07;;
75059;SDS011;63640;59.264;18.116;2022-10-16T01:04:59;25.05;;;14.90;;
75059;SDS011;63640;59.264;18.116;2022-10-16T01:12:44;24.83;;;13.63;;
75059;SDS011;63640;59.264;18.116;2022-10-16T01:15:12;23.20;;;13.70;;
75059;SDS011;63640;59.264;18.116;2022-10-16T01:31:35;25.63;;;13.55;;
75059;SDS011;63640;59.264;18.116;2022-10-16T01:34:03;23.70;;;13.32;;
75059;SDS011;63640;59.264;18.116;2022-10-16T01:36:35;24.20;;;14.02;;
75059;SDS011;63640;59.264;18.116;2022-10-16T01:39:02;24.55;;;14.30;;
75059;SDS011;63640;59.264;18.116;2022-10-16T01:41:44;20.70;;;11.63;;
75059;SDS011;63640;59.264;18.116;2022-10-16T01:44:14;23.88;;;14.25;;
75059;SDS011;63640;59.264;18.116;2022-10-16T01:46:43;24.10;;;14.32;;
75059;SDS011;63640;59.264;18.116;2022-10-16T01:49:11;25.95;;;14.27;;
75059;SDS011;63640;59.264;18.116;2022-10-16T01:51:38;22.42;;;13.38;;
75059;SDS011;63640;59.264;18.116;2022-10-16T01:54:04;23.73;;;13.10;;
75059;SDS011;63640;59.264;18.116;2022-10-16T01:56:32;24.98;;;13.48;;
75059;SDS011;63640;59.264;18.116;2022-10-16T01:58:59;26.35;;;14.57;;
75059;SDS011;63640;59.264;18.116;2022-10-16T02:01:27;23.20;;;13.13;;
75059;SDS011;63640;59.264;18.116;2022-10-16T02:03:55;22.55;;;13.35;;
75059;SDS011;63640;59.264;18.116;2022-10-16T02:06:22;23.08;;;13.77;;
75059;SDS011;63640;59.264;18.116;2022-10-16T02:08:48;26.25;;;14.65;;
75059;SDS011;63640;59.264;18.116;2022-10-16T02:11:14;23.65;;;14.43;;
75059;SDS011;63640;59.264;18.116;2022-10-16T02:13:44;26.65;;;15.38;;
75059;SDS011;63640;59.264;18.116;2022-10-16T02:18:37;23.95;;;11.07;;
75059;SDS011;63640;59.264;18.116;2022-10-16T02:26:19;27.50;;;13.40;;
75059;SDS011;63640;59.264;18.116;2022-10-16T02:28:53;28.02;;;15.63;;
75059;SDS011;63640;59.264;18.116;2022-10-16T02:31:25;25.60;;;13.27;;
75059;SDS011;63640;59.264;18.116;2022-10-16T02:33:53;27.08;;;14.95;;
75059;SDS011;63640;59.264;18.116;2022-10-16T02:36:20;25.95;;;14.10;;
75059;SDS011;63640;59.264;18.116;2022-10-16T02:38:46;25.77;;;14.52;;
75059;SDS011;63640;59.264;18.116;2022-10-16T02:41:12;24.40;;;13.02;;
75059;SDS011;63640;59.264;18.116;2022-10-16T02:43:38;25.23;;;14.55;;
75059;SDS011;63640;59.264;18.116;2022-10-16T02:46:03;22.13;;;13.95;;
75059;SDS011;63640;59.264;18.116;2022-10-16T02:48:29;22.05;;;11.35;;
75059;SDS011;63640;59.264;18.116;2022-10-16T02:50:54;23.63;;;13.52;;
75059;SDS011;63640;59.264;18.116;2022-10-16T02:53:19;20.33;;;10.82;;
75059;SDS011;63640;59.264;18.116;2022-10-16T02:55:45;19.15;;;10.88;;
75059;SDS011;63640;59.264;18.116;2022-10-16T02:58:10;22.35;;;12.40;;
75059;SDS011;63640;59.264;18.116;2022-10-16T03:00:36;23.95;;;12.82;;
75059;SDS011;63640;59.264;18.116;2022-10-16T03:03:01;20.25;;;12.57;;
75059;SDS011;63640;59.264;18.116;2022-10-16T03:05:27;19.85;;;11.32;;
75059;SDS011;63640;59.264;18.116;2022-10-16T03:07:52;19.38;;;11.00;;
75059;SDS011;63640;59.264;18.116;2022-10-16T03:10:18;22.88;;;12.02;;
75059;SDS011;63640;59.264;18.116;2022-10-16T03:12:43;18.45;;;10.40;;
75059;SDS011;63640;59.264;18.116;2022-10-16T03:15:09;18.98;;;10.30;;
75059;SDS011;63640;59.264;18.116;2022-10-16T03:17:35;17.02;;;10.18;;
75059;SDS011;63640;59.264;18.116;2022-10-16T03:20:00;16.75;;;10.07;;
75059;SDS011;63640;59.264;18.116;2022-10-16T03:22:26;19.90;;;10.32;;
75059;SDS011;63640;59.264;18.116;2022-10-16T03:24:51;16.45;;;9.57;;
75059;SDS011;63640;59.264;18.116;2022-10-16T03:27:17;16.80;;;10.02;;
75059;SDS011;63640;59.264;18.116;2022-10-16T03:29:42;18.02;;;9.93;;
75059;SDS011;63640;59.264;18.116;2022-10-16T03:32:07;17.35;;;9.15;;
75059;SDS011;63640;59.264;18.116;2022-10-16T03:34:33;16.75;;;10.52;;
75059;SDS011;63640;59.264;18.116;2022-10-16T03:36:58;18.80;;;8.88;;
75059;SDS011;63640;59.264;18.116;2022-10-16T03:39:24;17.15;;;9.65;;
75059;SDS011;63640;59.264;18.116;2022-10-16T03:41:49;16.20;;;10.27;;
75059;SDS011;63640;59.264;18.116;2022-10-16T03:44:15;19.45;;;10.00;;
75059;SDS011;63640;59.264;18.116;2022-10-16T03:46:41;19.20;;;9.90;;
75059;SDS011;63640;59.264;18.116;2022-10-16T03:49:06;17.85;;;9.77;;
75059;SDS011;63640;59.264;18.116;2022-10-16T03:51:31;16.00;;;9.40;;
75059;SDS011;63640;59.264;18.116;2022-10-16T03:53:57;16.08;;;9.13;;
75059;SDS011;63640;59.264;18.116;2022-10-16T03:56:22;14.32;;;8.38;;
75059;SDS011;63640;59.264;18.116;2022-10-16T03:58:48;15.77;;;9.55;;
75059;SDS011;63640;59.264;18.116;2022-10-16T04:01:14;17.27;;;9.07;;
75059;SDS011;63640;59.264;18.116;2022-10-16T04:03:40;15.15;;;8.90;;
75059;SDS011;63640;59.264;18.116;2022-10-16T04:06:05;13.40;;;8.90;;
75059;SDS011;63640;59.264;18.116;2022-10-16T04:08:31;15.27;;;9.27;;
75059;SDS011;63640;59.264;18.116;2022-10-16T04:10:59;15.10;;;9.35;;
75059;SDS011;63640;59.264;18.116;2022-10-16T04:13:25;16.63;;;9.07;;
75059;SDS011;63640;59.264;18.116;2022-10-16T04:15:50;15.00;;;9.10;;
75059;SDS011;63640;59.264;18.116;2022-10-16T04:18:16;14.55;;;8.73;;
75059;SDS011;63640;59.264;18.116;2022-10-16T04:20:41;15.70;;;9.10;;
75059;SDS011;63640;59.264;18.116;2022-10-16T04:23:07;15.25;;;8.30;;
75059;SDS011;63640;59.264;18.116;2022-10-16T04:25:32;16.17;;;9.55;;
75059;SDS011;63640;59.264;18.116;2022-10-16T04:27:58;14.57;;;9.05;;
75059;SDS011;63640;59.264;18.116;2022-10-16T04:30:23;19.55;;;8.63;;
75059;SDS011;63640;59.264;18.116;2022-10-16T04:32:50;15.95;;;8.48;;
75059;SDS011;63640;59.264;18.116;2022-10-16T04:35:16;15.45;;;8.18;;
75059;SDS011;63640;59.264;18.116;2022-10-16T04:37:42;15.95;;;8.27;;
75059;SDS011;63640;59.264;18.116;2022-10-16T04:40:08;15.98;;;8.95;;
75059;SDS011;63640;59.264;18.116;2022-10-16T04:42:33;14.85;;;9.40;;
75059;SDS011;63640;59.264;18.116;2022-10-16T04:44:59;16.00;;;9.90;;
75059;SDS011;63640;59.264;18.116;2022-10-16T04:47:24;15.45;;;9.48;;
75059;SDS011;63640;59.264;18.116;2022-10-16T04:49:50;14.40;;;8.07;;
75059;SDS011;63640;59.264;18.116;2022-10-16T04:52:15;16.73;;;10.13;;
75059;SDS011;63640;59.264;18.116;2022-10-16T04:54:41;15.82;;;9.25;;
75059;SDS011;63640;59.264;18.116;2022-10-16T04:57:06;14.88;;;9.23;;
75059;SDS011;63640;59.264;18.116;2022-10-16T04:59:32;13.40;;;7.38;;
75059;SDS011;63640;59.264;18.116;2022-10-16T05:01:57;15.00;;;8.70;;
75059;SDS011;63640;59.264;18.116;2022-10-16T05:04:23;13.32;;;8.27;;
75059;SDS011;63640;59.264;18.116;2022-10-16T05:06:48;14.90;;;8.25;;
75059;SDS011;63640;59.264;18.116;2022-10-16T05:09:14;17.55;;;8.95;;
75059;SDS011;63640;59.264;18.116;2022-10-16T05:11:39;14.68;;;8.15;;
75059;SDS011;63640;59.264;18.116;2022-10-16T05:14:05;16.15;;;8.85;;
75059;SDS011;63640;59.264;18.116;2022-10-16T05:16:30;18.08;;;9.43;;
75059;SDS011;63640;59.264;18.116;2022-10-16T05:18:56;15.38;;;9.40;;
75059;SDS011;63640;59.264;18.116;2022-10-16T05:21:21;17.70;;;9.55;;
75059;SDS011;63640;59.264;18.116;2022-10-16T05:23:47;16.95;;;9.40;;
75059;SDS011;63640;59.264;18.116;2022-10-16T05:26:13;15.77;;;9.85;;
75059;SDS011;63640;59.264;18.116;2022-10-16T05:28:38;14.25;;;9.45;;
75059;SDS011;63640;59.264;18.116;2022-10-16T05:31:07;16.05;;;9.10;;
75059;SDS011;63640;59.264;18.116;2022-10-16T05:33:33;17.90;;;8.77;;
75059;SDS011;63640;59.264;18.116;2022-10-16T05:36:03;18.73;;;9.73;;
75059;SDS011;63640;59.264;18.116;2022-10-16T05:38:29;19.52;;;9.80;;
75059;SDS011;63640;59.264;18.116;2022-10-16T05:40:54;17.60;;;10.02;;
75059;SDS011;63640;59.264;18.116;2022-10-16T05:43:21;18.83;;;9.55;;
75059;SDS011;63640;59.264;18.116;2022-10-16T05:46:04;20.30;;;10.25;;
75059;SDS011;63640;59.264;18.116;2022-10-16T05:48:31;18.17;;;10.82;;
75059;SDS011;63640;59.264;18.116;2022-10-16T05:51:00;15.40;;;9.85;;
75059;SDS011;63640;59.264;18.116;2022-10-16T05:53:28;18.63;;;10.73;;
75059;SDS011;63640;59.264;18.116;2022-10-16T05:55:55;20.00;;;11.68;;
75059;SDS011;63640;59.264;18.116;2022-10-16T05:58:21;19.23;;;11.15;;
75059;SDS011;63640;59.264;18.116;2022-10-16T06:00:57;19.98;;;10.57;;
75059;SDS011;63640;59.264;18.116;2022-10-16T06:03:24;21.45;;;11.10;;
75059;SDS011;63640;59.264;18.116;2022-10-16T06:05:49;18.88;;;11.15;;
75059;SDS011;63640;59.264;18.116;2022-10-16T06:08:15;21.33;;;12.65;;
75059;SDS011;63640;59.264;18.116;2022-10-16T06:10:41;22.67;;;12.98;;
75059;SDS011;63640;59.264;18.116;2022-10-16T06:13:07;20.83;;;10.50;;
75059;SDS011;63640;59.264;18.116;2022-10-16T06:15:32;22.25;;;12.45;;
75059;SDS011;63640;59.264;18.116;2022-10-16T06:17:58;22.30;;;12.27;;
75059;SDS011;63640;59.264;18.116;2022-10-16T06:20:23;24.95;;;14.15;;
75059;SDS011;63640;59.264;18.116;2022-10-16T06:22:48;21.77;;;13.18;;
75059;SDS011;63640;59.264;18.116;2022-10-16T06:25:14;26.77;;;13.57;;
75059;SDS011;63640;59.264;18.116;2022-10-16T06:27:40;27.70;;;14.98;;
75059;SDS011;63640;59.264;18.116;2022-10-16T06:30:06;29.20;;;14.80;;
75059;SDS011;63640;59.264;18.116;2022-10-16T06:32:32;28.40;;;15.98;;
75059;SDS011;63640;59.264;18.116;2022-10-16T06:34:57;22.92;;;14.73;;
75059;SDS011;63640;59.264;18.116;2022-10-16T06:37:23;25.35;;;13.40;;
75059;SDS011;63640;59.264;18.116;2022-10-16T06:39:49;26.08;;;16.25;;
75059;SDS011;63640;59.264;18.116;2022-10-16T06:42:17;25.60;;;14.20;;
75059;SDS011;63640;59.264;18.116;2022-10-16T06:44:43;31.45;;;16.67;;
75059;SDS011;63640;59.264;18.116;2022-10-16T06:47:08;28.10;;;16.13;;
75059;SDS011;63640;59.264;18.116;2022-10-16T06:49:34;26.67;;;14.73;;
75059;SDS011;63640;59.264;18.116;2022-10-16T06:52:00;29.90;;;15.80;;
75059;SDS011;63640;59.264;18.116;2022-10-16T06:54:26;32.10;;;16.20;;
75059;SDS011;63640;59.264;18.116;2022-10-16T06:56:52;29.38;;;15.50;;
75059;SDS011;63640;59.264;18.116;2022-10-16T06:59:19;31.90;;;16.52;;
75059;SDS011;63640;59.264;18.116;2022-10-16T07:01:45;35.00;;;18.30;;
75059;SDS011;63640;59.264;18.116;2022-10-16T07:04:11;28.95;;;15.50;;
75059;SDS011;63640;59.264;18.116;2022-10-16T07:06:36;30.27;;;17.02;;
75059;SDS011;63640;59.264;18.116;2022-10-16T07:09:03;33.58;;;17.90;;
75059;SDS011;63640;59.264;18.116;2022-10-16T07:11:30;30.63;;;16.45;;
75059;SDS011;63640;59.264;18.116;2022-10-16T07:13:55;31.55;;;18.23;;
75059;SDS011;63640;59.264;18.116;2022-10-16T07:16:22;30.25;;;16.13;;
75059;SDS011;63640;59.264;18.116;2022-10-16T07:18:49;32.60;;;16.38;;
75059;SDS011;63640;59.264;18.116;2022-10-16T07:21:17;28.75;;;15.40;;
75059;SDS011;63640;59.264;18.116;2022-10-16T07:23:45;30.77;;;17.35;;
75059;SDS011;63640;59.264;18.116;2022-10-16T07:26:11;28.58;;;14.93;;
75059;SDS011;63640;59.264;18.116;2022-10-16T07:28:37;27.70;;;16.15;;
75059;SDS011;63640;59.264;18.116;2022-10-16T07:31:07;27.58;;;14.25;;
75059;SDS011;63640;59.264;18.116;2022-10-16T07:33:38;29.95;;;15.05;;
75059;SDS011;63640;59.264;18.116;2022-10-16T07:36:07;23.83;;;13.10;;
75059;SDS011;63640;59.264;18.116;2022-10-16T07:38:32;19.52;;;11.45;;
75059;SDS011;63640;59.264;18.116;2022-10-16T07:40:59;22.85;;;12.63;;
75059;SDS011;63640;59.264;18.116;2022-10-16T07:43:25;19.75;;;11.57;;
75059;SDS011;63640;59.264;18.116;2022-10-16T07:45:51;17.70;;;10.82;;
75059;SDS011;63640;59.264;18.116;2022-10-16T07:48:17;16.13;;;9.43;;
75059;SDS011;63640;59.264;18.116;2022-10-16T07:50:43;16.85;;;7.88;;
75059;SDS011;63640;59.264;18.116;2022-10-16T07:53:09;13.60;;;8.18;;
75059;SDS011;63640;59.264;18.116;2022-10-16T07:55:35;15.63;;;8.80;;
75059;SDS011;63640;59.264;18.116;2022-10-16T07:58:00;13.80;;;7.13;;
75059;SDS011;63640;59.264;18.116;2022-10-16T08:00:26;13.93;;;6.53;;
75059;SDS011;63640;59.264;18.116;2022-10-16T08:02:51;14.23;;;7.57;;
75059;SDS011;63640;59.264;18.116;2022-10-16T08:05:17;14.32;;;7.60;;
75059;SDS011;63640;59.264;18.116;2022-10-16T08:07:42;13.57;;;7.45;;
75059;SDS011;63640;59.264;18.116;2022-10-16T08:10:18;12.93;;;6.88;;
75059;SDS011;63640;59.264;18.116;2022-10-16T08:12:45;12.77;;;7.60;;
75059;SDS011;63640;59.264;18.116;2022-10-16T08:15:11;15.40;;;7.43;;
75059;SDS011;63640;59.264;18.116;2022-10-16T08:17:36;14.57;;;7.28;;
75059;SDS011;63640;59.264;18.116;2022-10-16T08:20:02;15.18;;;7.55;;
75059;SDS011;63640;59.264;18.116;2022-10-16T08:22:28;13.68;;;7.05;;
75059;SDS011;63640;59.264;18.116;2022-10-16T08:24:53;12.88;;;6.35;;
75059;SDS011;63640;59.264;18.116;2022-10-16T08:27:19;11.02;;;7.05;;
75059;SDS011;63640;59.264;18.116;2022-10-16T08:29:44;13.40;;;6.60;;
75059;SDS011;63640;59.264;18.116;2022-10-16T08:32:09;9.65;;;6.35;;
75059;SDS011;63640;59.264;18.116;2022-10-16T08:34:35;12.88;;;6.70;;
75059;SDS011;63640;59.264;18.116;2022-10-16T08:37:00;10.82;;;6.72;;
75059;SDS011;63640;59.264;18.116;2022-10-16T08:39:26;9.60;;;6.13;;
75059;SDS011;63640;59.264;18.116;2022-10-16T08:49:25;13.05;;;7.30;;
75059;SDS011;63640;59.264;18.116;2022-10-16T08:51:51;10.88;;;6.25;;
75059;SDS011;63640;59.264;18.116;2022-10-16T08:54:30;11.57;;;5.93;;
75059;SDS011;63640;59.264;18.116;2022-10-16T08:57:07;11.95;;;5.82;;
75059;SDS011;63640;59.264;18.116;2022-10-16T08:59:35;10.07;;;5.90;;
75059;SDS011;63640;59.264;18.116;2022-10-16T09:02:00;9.18;;;5.15;;
75059;SDS011;63640;59.264;18.116;2022-10-16T09:07:00;10.50;;;5.32;;
75059;SDS011;63640;59.264;18.116;2022-10-16T09:12:25;8.30;;;5.18;;
75059;SDS011;63640;59.264;18.116;2022-10-16T09:15:01;9.18;;;4.40;;
75059;SDS011;63640;59.264;18.116;2022-10-16T09:23:12;9.63;;;5.30;;
75059;SDS011;63640;59.264;18.116;2022-10-16T09:25:59;7.28;;;4.00;;
75059;SDS011;63640;59.264;18.116;2022-10-16T09:28:25;8.07;;;4.97;;
75059;SDS011;63640;59.264;18.116;2022-10-16T09:30:51;8.35;;;4.10;;
75059;SDS011;63640;59.264;18.116;2022-10-16T09:33:18;7.55;;;4.20;;
75059;SDS011;63640;59.264;18.116;2022-10-16T09:35:45;7.80;;;4.28;;
75059;SDS011;63640;59.264;18.116;2022-10-16T09:43:46;7.93;;;4.68;;
75059;SDS011;63640;59.264;18.116;2022-10-16T09:46:27;8.35;;;4.25;;
75059;SDS011;63640;59.264;18.116;2022-10-16T09:48:58;7.70;;;4.05;;
75059;SDS011;63640;59.264;18.116;2022-10-16T09:51:33;7.85;;;4.28;;
75059;SDS011;63640;59.264;18.116;2022-10-16T09:54:21;8.13;;;4.03;;
75059;SDS011;63640;59.264;18.116;2022-10-16T09:56:46;9.05;;;4.20;;
75059;SDS011;63640;59.264;18.116;2022-10-16T09:59:23;8.32;;;3.42;;
75059;SDS011;63640;59.264;18.116;2022-10-16T10:01:52;7.65;;;3.25;;
75059;SDS011;63640;59.264;18.116;2022-10-16T10:04:19;9.32;;;3.55;;
75059;SDS011;63640;59.264;18.116;2022-10-16T10:09:18;8.05;;;3.05;;
75059;SDS011;63640;59.264;18.116;2022-10-16T10:11:47;7.88;;;2.97;;
75059;SDS011;63640;59.264;18.116;2022-10-16T10:16:43;8.32;;;3.35;;
75059;SDS011;63640;59.264;18.116;2022-10-16T10:19:20;9.25;;;4.82;;
75059;SDS011;63640;59.264;18.116;2022-10-16T10:21:47;9.50;;;3.53;;
75059;SDS011;63640;59.264;18.116;2022-10-16T10:24:13;9.13;;;3.97;;
75059;SDS011;63640;59.264;18.116;2022-10-16T10:27:22;9.98;;;3.30;;
75059;SDS011;63640;59.264;18.116;2022-10-16T10:32:15;7.68;;;3.97;;
75059;SDS011;63640;59.264;18.116;2022-10-16T10:37:39;6.85;;;3.08;;
75059;SDS011;63640;59.264;18.116;2022-10-16T10:45:43;9.25;;;3.35;;
75059;SDS011;63640;59.264;18.116;2022-10-16T10:50:49;7.60;;;3.45;;
75059;SDS011;63640;59.264;18.116;2022-10-16T11:01:56;8.20;;;3.25;;
75059;SDS011;63640;59.264;18.116;2022-10-16T11:07:33;7.47;;;3.30;;
75059;SDS011;63640;59.264;18.116;2022-10-16T11:10:12;10.07;;;3.00;;
75059;SDS011;63640;59.264;18.116;2022-10-16T11:12:40;6.07;;;3.00;;
75059;SDS011;63640;59.264;18.116;2022-10-16T11:15:15;9.80;;;3.13;;
75059;SDS011;63640;59.264;18.116;2022-10-16T11:20:23;11.07;;;3.40;;
75059;SDS011;63640;59.264;18.116;2022-10-16T11:25:27;9.07;;;2.67;;
75059;SDS011;63640;59.264;18.116;2022-10-16T11:30:27;8.32;;;3.10;;
75059;SDS011;63640;59.264;18.116;2022-10-16T11:38:07;7.15;;;2.95;;
75059;SDS011;63640;59.264;18.116;2022-10-16T11:40:38;9.23;;;3.60;;
75059;SDS011;63640;59.264;18.116;2022-10-16T11:45:38;8.27;;;3.00;;
75059;SDS011;63640;59.264;18.116;2022-10-16T11:50:53;8.35;;;2.80;;
75059;SDS011;63640;59.264;18.116;2022-10-16T11:56:00;5.63;;;2.35;;
75059;SDS011;63640;59.264;18.116;2022-10-16T11:58:32;10.27;;;3.47;;
75059;SDS011;63640;59.264;18.116;2022-10-16T12:03:45;8.10;;;2.92;;
75059;SDS011;63640;59.264;18.116;2022-10-16T12:06:22;11.35;;;3.38;;
75059;SDS011;63640;59.264;18.116;2022-10-16T12:09:00;9.43;;;3.05;;
75059;SDS011;63640;59.264;18.116;2022-10-16T12:13:51;10.75;;;3.30;;
75059;SDS011;63640;59.264;18.116;2022-10-16T12:16:28;6.43;;;2.83;;
75059;SDS011;63640;59.264;18.116;2022-10-16T12:19:13;8.10;;;3.40;;
75059;SDS011;63640;59.264;18.116;2022-10-16T12:21:40;8.52;;;3.13;;
75059;SDS011;63640;59.264;18.116;2022-10-16T12:24:06;6.60;;;3.05;;
75059;SDS011;63640;59.264;18.116;2022-10-16T12:26:37;6.55;;;2.90;;
75059;SDS011;63640;59.264;18.116;2022-10-16T12:29:14;8.45;;;2.60;;
75059;SDS011;63640;59.264;18.116;2022-10-16T12:31:58;6.03;;;2.95;;
75059;SDS011;63640;59.264;18.116;2022-10-16T12:34:28;7.15;;;3.25;;
75059;SDS011;63640;59.264;18.116;2022-10-16T12:36:54;7.55;;;3.00;;
75059;SDS011;63640;59.264;18.116;2022-10-16T12:39:24;7.40;;;2.92;;
75059;SDS011;63640;59.264;18.116;2022-10-16T12:42:03;8.43;;;2.90;;
75059;SDS011;63640;59.264;18.116;2022-10-16T12:44:33;7.93;;;3.22;;
75059;SDS011;63640;59.264;18.116;2022-10-16T12:47:00;6.07;;;2.00;;
75059;SDS011;63640;59.264;18.116;2022-10-16T12:49:30;7.57;;;2.60;;
75059;SDS011;63640;59.264;18.116;2022-10-16T12:51:57;7.18;;;2.92;;
75059;SDS011;63640;59.264;18.116;2022-10-16T13:02:47;8.73;;;3.17;;
75059;SDS011;63640;59.264;18.116;2022-10-16T13:08:12;7.93;;;3.50;;
75059;SDS011;63640;59.264;18.116;2022-10-16T13:19:02;5.80;;;2.25;;
75059;SDS011;63640;59.264;18.116;2022-10-16T13:29:29;6.20;;;2.38;;
75059;SDS011;63640;59.264;18.116;2022-10-16T13:31:58;12.00;;;3.17;;
75059;SDS011;63640;59.264;18.116;2022-10-16T13:34:24;6.60;;;2.10;;
75059;SDS011;63640;59.264;18.116;2022-10-16T13:36:50;7.53;;;2.70;;
75059;SDS011;63640;59.264;18.116;2022-10-16T13:39:30;7.97;;;2.35;;
75059;SDS011;63640;59.264;18.116;2022-10-16T13:42:15;10.63;;;2.55;;
75059;SDS011;63640;59.264;18.116;2022-10-16T13:44:50;7.47;;;2.33;;
75059;SDS011;63640;59.264;18.116;2022-10-16T13:47:18;6.40;;;2.45;;
75059;SDS011;63640;59.264;18.116;2022-10-16T13:52:37;5.50;;;2.78;;
75059;SDS011;63640;59.264;18.116;2022-10-16T13:55:04;5.47;;;2.70;;
75059;SDS011;63640;59.264;18.116;2022-10-16T13:57:35;7.72;;;2.55;;
75059;SDS011;63640;59.264;18.116;2022-10-16T14:00:01;7.20;;;2.55;;
75059;SDS011;63640;59.264;18.116;2022-10-16T14:02:27;6.35;;;2.50;;
75059;SDS011;63640;59.264;18.116;2022-10-16T14:04:56;9.75;;;2.72;;
75059;SDS011;63640;59.264;18.116;2022-10-16T14:07:29;6.20;;;2.60;;
75059;SDS011;63640;59.264;18.116;2022-10-16T14:09:56;7.50;;;2.63;;
75059;SDS011;63640;59.264;18.116;2022-10-16T14:12:27;7.47;;;1.90;;
75059;SDS011;63640;59.264;18.116;2022-10-16T14:14:53;9.73;;;2.20;;
75059;SDS011;63640;59.264;18.116;2022-10-16T14:19:47;9.82;;;2.60;;
75059;SDS011;63640;59.264;18.116;2022-10-16T14:24:58;9.45;;;2.75;;
75059;SDS011;63640;59.264;18.116;2022-10-16T14:32:41;8.30;;;2.25;;
75059;SDS011;63640;59.264;18.116;2022-10-16T14:37:54;8.75;;;2.70;;
75059;SDS011;63640;59.264;18.116;2022-10-16T14:40:26;7.55;;;3.00;;
75059;SDS011;63640;59.264;18.116;2022-10-16T14:42:53;7.22;;;2.92;;
75059;SDS011;63640;59.264;18.116;2022-10-16T14:45:20;8.82;;;2.72;;
75059;SDS011;63640;59.264;18.116;2022-10-16T14:48:00;10.32;;;2.85;;
75059;SDS011;63640;59.264;18.116;2022-10-16T14:50:27;8.15;;;2.60;;
75059;SDS011;63640;59.264;18.116;2022-10-16T14:52:53;8.13;;;2.75;;
75059;SDS011;63640;59.264;18.116;2022-10-16T14:55:19;9.63;;;2.88;;
75059;SDS011;63640;59.264;18.116;2022-10-16T14:57:45;9.02;;;3.00;;
75059;SDS011;63640;59.264;18.116;2022-10-16T15:00:16;6.03;;;2.65;;
75059;SDS011;63640;59.264;18.116;2022-10-16T15:02:47;9.77;;;3.20;;
75059;SDS011;63640;59.264;18.116;2022-10-16T15:05:15;9.32;;;3.22;;
75059;SDS011;63640;59.264;18.116;2022-10-16T15:07:43;8.02;;;3.00;;
75059;SDS011;63640;59.264;18.116;2022-10-16T15:10:09;12.05;;;3.25;;
75059;SDS011;63640;59.264;18.116;2022-10-16T15:12:34;9.07;;;3.10;;
75059;SDS011;63640;59.264;18.116;2022-10-16T15:15:00;8.05;;;3.22;;
75059;SDS011;63640;59.264;18.116;2022-10-16T15:17:26;6.00;;;2.30;;
75059;SDS011;63640;59.264;18.116;2022-10-16T15:19:51;6.70;;;2.22;;
75059;SDS011;63640;59.264;18.116;2022-10-16T15:22:17;11.18;;;2.92;;
75059;SDS011;63640;59.264;18.116;2022-10-16T15:24:42;11.93;;;2.95;;
75059;SDS011;63640;59.264;18.116;2022-10-16T15:27:08;12.23;;;3.30;;
75059;SDS011;63640;59.264;18.116;2022-10-16T15:29:33;12.95;;;3.35;;
75059;SDS011;63640;59.264;18.116;2022-10-16T15:31:59;10.45;;;3.45;;
75059;SDS011;63640;59.264;18.116;2022-10-16T15:34:24;13.10;;;3.15;;
75059;SDS011;63640;59.264;18.116;2022-10-16T15:36:50;5.60;;;1.83;;
75059;SDS011;63640;59.264;18.116;2022-10-16T15:39:16;9.00;;;1.80;;
75059;SDS011;63640;59.264;18.116;2022-10-16T15:41:43;5.20;;;1.58;;
75059;SDS011;63640;59.264;18.116;2022-10-16T15:44:10;6.57;;;1.63;;
75059;SDS011;63640;59.264;18.116;2022-10-16T15:46:35;5.75;;;1.52;;
75059;SDS011;63640;59.264;18.116;2022-10-16T15:49:02;6.90;;;1.95;;
75059;SDS011;63640;59.264;18.116;2022-10-16T15:51:28;7.22;;;1.83;;
75059;SDS011;63640;59.264;18.116;2022-10-16T15:53:55;5.80;;;1.48;;
75059;SDS011;63640;59.264;18.116;2022-10-16T15:56:22;9.85;;;1.92;;
75059;SDS011;63640;59.264;18.116;2022-10-16T15:58:49;5.57;;;1.38;;
75059;SDS011;63640;59.264;18.116;2022-10-16T16:01:14;5.18;;;1.75;;
75059;SDS011;63640;59.264;18.116;2022-10-16T16:03:40;4.82;;;1.50;;
75059;SDS011;63640;59.264;18.116;2022-10-16T16:06:09;5.00;;;1.77;;
75059;SDS011;63640;59.264;18.116;2022-10-16T16:08:36;6.18;;;2.05;;
75059;SDS011;63640;59.264;18.116;2022-10-16T16:11:02;8.60;;;1.60;;
75059;SDS011;63640;59.264;18.116;2022-10-16T16:13:32;6.15;;;1.60;;
75059;SDS011;63640;59.264;18.116;2022-10-16T16:15:58;7.15;;;1.70;;
75059;SDS011;63640;59.264;18.116;2022-10-16T16:18:24;4.80;;;1.48;;
75059;SDS011;63640;59.264;18.116;2022-10-16T16:20:50;5.38;;;1.80;;
75059;SDS011;63640;59.264;18.116;2022-10-16T16:23:16;9.20;;;1.40;;
75059;SDS011;63640;59.264;18.116;2022-10-16T16:25:41;8.88;;;1.70;;
75059;SDS011;63640;59.264;18.116;2022-10-16T16:28:07;5.38;;;1.30;;
75059;SDS011;63640;59.264;18.116;2022-10-16T16:30:35;6.25;;;1.60;;
75059;SDS011;63640;59.264;18.116;2022-10-16T16:33:01;5.88;;;2.22;;
75059;SDS011;63640;59.264;18.116;2022-10-16T16:35:26;7.78;;;2.00;;
75059;SDS011;63640;59.264;18.116;2022-10-16T16:37:52;6.57;;;2.22;;
75059;SDS011;63640;59.264;18.116;2022-10-16T16:40:17;6.40;;;2.47;;
75059;SDS011;63640;59.264;18.116;2022-10-16T16:42:43;6.30;;;2.30;;
75059;SDS011;63640;59.264;18.116;2022-10-16T16:45:08;7.57;;;2.58;;
75059;SDS011;63640;59.264;18.116;2022-10-16T16:47:34;8.00;;;3.20;;
75059;SDS011;63640;59.264;18.116;2022-10-16T16:49:59;7.85;;;2.67;;
75059;SDS011;63640;59.264;18.116;2022-10-16T16:52:29;5.25;;;1.80;;
75059;SDS011;63640;59.264;18.116;2022-10-16T16:54:55;7.00;;;2.15;;
75059;SDS011;63640;59.264;18.116;2022-10-16T16:57:20;6.07;;;1.83;;